Time;durP1;ratioP1;P1;durP2;ratioP2;P2;SDS_P1;SDS_P2;PMS_P1;PMS_P2;Temp;Humidity;BMP_temperature;BMP_pressure;BME280_temperature;BME280_humidity;BME280_pressure;Samples;Min_cycle;Max_cycle;Signal;HPM_P1;HPM_P2
2022/07/02 00:02:06;;;;;;;;;3.00;2.00;;;;;20.38;40.27;101664.25;4977819;28;45164;-66
2022/07/02 00:04:33;;;;;;;;;3.00;3.00;;;;;20.45;40.33;101681.44;4997679;28;45282;-65
2022/07/02 00:06:59;;;;;;;;;2.00;2.00;;;;;20.43;40.29;101681.63;4997172;28;47520;-66
2022/07/02 00:09:28;;;;;;;;;5.00;3.33;;;;;20.34;40.19;101670.03;4995794;28;45732;-66
2022/07/02 00:11:59;;;;;;;;;5.00;4.00;;;;;20.38;40.93;101685.88;4977709;28;45337;-66
2022/07/02 00:14:25;;;;;;;;;5.00;2.67;;;;;20.28;40.41;101670.78;4977846;28;45297;-65
2022/07/02 00:16:53;;;;;;;;;2.00;2.00;;;;;20.33;41.31;101672.94;4977036;28;47126;-66
2022/07/02 00:19:19;;;;;;;;;3.00;3.00;;;;;20.22;40.77;101655.34;4977443;28;45505;-65
2022/07/02 00:21:46;;;;;;;;;2.00;2.00;;;;;20.28;40.97;101668.09;4976487;28;45511;-65
2022/07/02 00:24:11;;;;;;;;;5.00;4.33;;;;;20.25;40.76;101667.63;4977719;28;45223;-67
2022/07/02 00:26:45;;;;;;;;;6.00;3.00;;;;;20.31;41.36;101692.03;4977041;28;49843;-66
2022/07/02 00:29:26;;;;;;;;;1.00;1.00;;;;;20.28;40.29;101686.16;4973002;28;46279;-64
2022/07/02 00:31:52;;;;;;;;;4.00;4.00;;;;;20.19;40.41;101671.03;4957847;28;45432;-66
2022/07/02 00:34:18;;;;;;;;;3.33;3.33;;;;;20.12;40.64;101667.41;4958041;28;45524;-66
2022/07/02 00:36:44;;;;;;;;;5.00;5.00;;;;;20.20;41.01;101684.34;4957531;28;45611;-66
2022/07/02 00:39:10;;;;;;;;;3.00;3.00;;;;;20.19;40.80;101688.06;4957525;28;45226;-66
2022/07/02 00:41:36;;;;;;;;;5.67;4.67;;;;;19.65;41.64;101606.47;4957905;28;45515;-66
2022/07/02 00:44:05;;;;;;;;;5.67;5.00;;;;;20.11;41.32;101668.44;4958072;28;45295;-66
2022/07/02 00:46:32;;;;;;;;;7.00;5.33;;;;;20.01;42.21;101669.53;4956271;28;46302;-66
2022/07/02 00:49:00;;;;;;;;;8.33;6.00;;;;;20.06;42.36;101671.69;4968595;28;45267;-65
2022/07/02 00:51:25;;;;;;;;;4.00;2.00;;;;;20.09;41.76;101675.88;4996891;28;45621;-65
2022/07/02 00:53:50;;;;;;;;;8.67;6.00;;;;;20.04;42.62;101669.19;5000309;28;45352;-65
2022/07/02 00:56:16;;;;;;;;;5.00;5.00;;;;;20.05;41.92;101665.47;4999944;28;46684;-66
2022/07/02 00:58:41;;;;;;;;;7.00;7.00;;;;;20.09;41.88;101665.09;5000327;28;45249;-65
2022/07/02 01:01:07;;;;;;;;;7.67;6.00;;;;;20.08;42.22;101663.41;5000269;28;45496;-66
2022/07/02 01:03:35;;;;;;;;;4.33;4.33;;;;;20.07;41.77;101665.28;5000062;28;45538;-65
2022/07/02 01:06:00;;;;;;;;;5.33;5.00;;;;;20.06;42.06;101655.50;4999948;28;46400;-66
2022/07/02 01:11:13;;;;;;;;;7.33;3.33;;;;;19.96;42.70;101654.91;4980300;28;45297;-65
2022/07/02 01:13:39;;;;;;;;;5.67;4.67;;;;;20.03;42.47;101666.66;4980535;28;45474;-67
2022/07/02 01:16:04;;;;;;;;;4.67;4.67;;;;;19.97;42.52;101664.69;4979798;28;47312;-65
2022/07/02 01:18:30;;;;;;;;;7.00;4.33;;;;;19.97;42.52;101662.81;4980030;28;45474;-65
2022/07/02 01:20:55;;;;;;;;;4.67;4.67;;;;;19.89;42.95;101653.97;4980112;28;45297;-64
2022/07/02 01:23:20;;;;;;;;;8.33;6.00;;;;;19.81;42.92;101649.47;5011950;28;45571;-65
2022/07/02 01:25:53;;;;;;;;;7.00;6.00;;;;;19.92;43.01;101669.78;4978430;28;47713;-65
2022/07/02 01:28:20;;;;;;;;;8.33;5.67;;;;;19.93;43.66;101671.47;4984501;28;45606;-65
2022/07/02 01:30:46;;;;;;;;;6.00;6.00;;;;;19.63;43.94;101633.63;4998887;28;45442;-66
2022/07/02 01:33:12;;;;;;;;;5.00;5.00;;;;;19.34;43.78;101591.19;4999863;28;45275;-65
2022/07/02 01:35:37;;;;;;;;;9.33;8.00;;;;;19.80;43.75;101673.94;4999556;28;46647;-66
2022/07/02 01:38:02;;;;;;;;;6.33;6.00;;;;;19.84;43.96;101677.97;4999630;28;45419;-66
2022/07/02 01:40:28;;;;;;;;;9.00;7.33;;;;;19.72;44.44;101670.31;4999495;28;45379;-65
2022/07/02 01:42:53;;;;;;;;;9.00;7.67;;;;;19.62;44.41;101661.63;4998429;28;45588;-65
2022/07/02 01:45:19;;;;;;;;;8.67;8.67;;;;;19.77;44.84;101685.94;4998415;28;46545;-65
2022/07/02 01:47:44;;;;;;;;;8.33;7.00;;;;;19.61;45.13;101659.94;4985599;28;45452;-67
2022/07/02 01:50:10;;;;;;;;;5.00;5.00;;;;;19.63;45.29;101666.00;4980928;28;45348;-66
2022/07/02 01:52:35;;;;;;;;;6.00;5.00;;;;;19.70;45.88;101687.69;4980158;28;45514;-65
2022/07/02 01:55:02;;;;;;;;;6.33;6.33;;;;;19.11;45.33;101584.94;4978182;28;48308;-65
2022/07/02 01:57:33;;;;;;;;;8.00;7.00;;;;;19.69;45.79;101681.47;4978042;28;45297;-66
2022/07/02 01:59:59;;;;;;;;;7.67;5.67;;;;;19.68;45.93;101679.78;4980148;28;45514;-65
2022/07/02 02:02:24;;;;;;;;;8.33;7.33;;;;;19.62;45.84;101674.25;4979220;28;45257;-65
2022/07/02 02:04:49;;;;;;;;;8.00;6.33;;;;;19.55;46.16;101668.75;4978772;28;46330;-64
2022/07/02 02:07:15;;;;;;;;;5.33;5.33;;;;;19.58;46.92;101667.53;4979261;28;46780;-65
2022/07/02 02:09:40;;;;;;;;;5.67;5.67;;;;;19.62;46.86;101685.91;4983405;28;45268;-65
2022/07/02 02:12:06;;;;;;;;;7.00;7.00;;;;;19.09;47.12;101587.00;4999308;28;45361;-65
2022/07/02 02:14:31;;;;;;;;;6.33;5.00;;;;;19.60;47.52;101679.00;4998833;28;45453;-66
2022/07/02 02:16:57;;;;;;;;;7.33;5.67;;;;;19.59;47.67;101680.00;4998867;28;45633;-65
2022/07/02 02:19:22;;;;;;;;;6.00;6.00;;;;;19.57;47.71;101672.09;4998738;28;45515;-66
2022/07/02 02:21:48;;;;;;;;;5.33;5.00;;;;;19.57;47.69;101669.41;4998770;28;45494;-66
2022/07/02 02:24:14;;;;;;;;;8.33;5.67;;;;;19.49;47.94;101666.75;4998591;28;46880;-68
2022/07/02 02:26:39;;;;;;;;;5.67;5.67;;;;;19.50;47.89;101660.34;4982964;28;45415;-66
2022/07/02 02:29:04;;;;;;;;;7.33;6.00;;;;;19.46;48.23;101659.03;4999036;28;45251;-66
2022/07/02 02:31:30;;;;;;;;;5.00;4.00;;;;;19.33;48.18;101637.19;4999093;28;45295;-67
2022/07/02 02:33:55;;;;;;;;;6.67;5.00;;;;;19.08;47.28;101596.94;4998502;28;45770;-65
2022/07/02 02:36:21;;;;;;;;;4.00;4.00;;;;;19.44;46.96;101661.91;4998664;28;45292;-65
2022/07/02 02:38:46;;;;;;;;;4.00;4.00;;;;;19.31;46.74;101639.22;4998580;28;45328;-65
2022/07/02 02:41:12;;;;;;;;;4.00;4.00;;;;;19.37;47.40;101652.81;4997673;28;45538;-65
2022/07/02 02:43:38;;;;;;;;;6.00;6.00;;;;;19.39;46.77;101658.03;4996616;28;45635;-65
2022/07/02 02:46:05;;;;;;;;;5.33;5.00;;;;;18.99;46.78;101598.00;4998086;28;45390;-64
2022/07/02 02:48:30;;;;;;;;;5.00;5.00;;;;;19.22;47.28;101632.19;4998516;28;45363;-65
2022/07/02 02:50:57;;;;;;;;;5.67;5.00;;;;;19.37;46.69;101654.69;4998540;28;45728;-65
2022/07/02 02:53:23;;;;;;;;;5.00;5.00;;;;;19.35;47.06;101667.50;4998553;28;46869;-65
2022/07/02 02:55:49;;;;;;;;;5.67;5.67;;;;;19.34;47.19;101661.28;4998135;28;45204;-65
2022/07/02 02:58:14;;;;;;;;;5.00;5.00;;;;;19.23;47.11;101644.69;4998236;28;45486;-65
2022/07/02 03:00:40;;;;;;;;;5.00;5.00;;;;;19.19;47.25;101636.09;4996613;28;45479;-66
2022/07/02 03:03:05;;;;;;;;;7.33;7.33;;;;;19.17;47.50;101631.91;4978460;28;46382;-64
2022/07/02 03:05:30;;;;;;;;;4.00;4.00;;;;;18.67;47.19;101555.09;4978572;28;45273;-66
2022/07/02 03:07:56;;;;;;;;;1.00;0.00;;;;;19.07;47.25;101624.91;4978561;28;45557;-65
2022/07/02 03:10:21;;;;;;;;;7.00;5.33;;;;;19.20;47.58;101642.34;4978676;28;45174;-65
2022/07/02 03:12:46;;;;;;;;;5.00;5.00;;;;;19.26;47.58;101655.97;4978406;28;45551;-65
2022/07/02 03:15:13;;;;;;;;;7.67;6.00;;;;;19.18;48.01;101644.38;4977996;28;45376;-65
2022/07/02 03:17:38;;;;;;;;;4.00;4.00;;;;;19.18;47.65;101652.47;4977068;28;45437;-65
2022/07/02 03:20:04;;;;;;;;;4.00;4.00;;;;;19.22;47.76;101662.72;4979006;28;45458;-66
2022/07/02 03:22:30;;;;;;;;;7.33;7.00;;;;;18.67;47.69;101576.66;4977896;28;46866;-64
2022/07/02 03:24:55;;;;;;;;;8.67;8.67;;;;;19.13;48.19;101659.22;4978081;28;45490;-66
2022/07/02 03:27:20;;;;;;;;;6.00;5.00;;;;;19.14;48.16;101660.91;4978303;28;45290;-65
2022/07/02 03:29:46;;;;;;;;;6.00;6.00;;;;;19.14;47.87;101665.47;4978465;28;45367;-65
2022/07/02 03:32:11;;;;;;;;;7.33;7.33;;;;;19.12;48.07;101668.34;4978084;28;46242;-65
2022/07/02 03:34:36;;;;;;;;;7.33;7.00;;;;;19.07;48.14;101657.25;4978042;28;45316;-66
2022/07/02 03:37:03;;;;;;;;;8.67;8.67;;;;;19.05;48.62;101659.28;4976866;28;45346;-66
2022/07/02 03:39:29;;;;;;;;;7.67;6.33;;;;;18.88;48.94;101640.69;4982698;28;45343;-67
2022/07/02 03:41:54;;;;;;;;;7.33;7.33;;;;;18.92;49.64;101661.72;4997640;28;46565;-65
2022/07/02 03:44:19;;;;;;;;;6.00;6.00;;;;;18.33;50.11;101567.00;4996239;28;45340;-65
2022/07/02 03:46:45;;;;;;;;;8.67;6.33;;;;;18.82;50.85;101661.06;4996489;28;45269;-65
2022/07/02 03:49:10;;;;;;;;;9.33;7.00;;;;;18.77;51.51;101663.47;4997904;28;45321;-65
2022/07/02 03:51:36;;;;;;;;;12.33;10.00;;;;;18.71;51.69;101670.38;4997547;28;45450;-65
2022/07/02 03:54:02;;;;;;;;;8.00;8.00;;;;;18.65;52.20;101668.41;4997567;28;45273;-65
2022/07/02 03:56:28;;;;;;;;;12.33;10.67;;;;;18.54;52.66;101648.03;4997355;28;45225;-65
2022/07/02 03:58:54;;;;;;;;;9.67;9.00;;;;;18.38;52.13;101629.22;4996961;28;45438;-66
2022/07/02 04:01:19;;;;;;;;;15.00;10.00;;;;;18.61;52.38;101653.56;4996126;28;47347;-65
2022/07/02 04:03:44;;;;;;;;;11.67;9.67;;;;;18.65;52.16;101670.25;4997564;28;45540;-64
2022/07/02 04:06:10;;;;;;;;;9.00;8.00;;;;;18.16;51.91;101578.84;4997463;28;45474;-64
2022/07/02 04:08:35;;;;;;;;;8.33;7.33;;;;;18.29;51.51;101600.69;4978929;28;45253;-65
2022/07/02 04:11:01;;;;;;;;;7.67;7.67;;;;;18.53;51.73;101646.34;4977556;28;46312;-64
2022/07/02 04:13:26;;;;;;;;;9.67;9.00;;;;;18.09;51.67;101569.78;4973144;28;46517;-65
2022/07/02 04:15:51;;;;;;;;;9.67;6.33;;;;;18.58;51.73;101648.50;4996911;28;45337;-65
2022/07/02 04:18:18;;;;;;;;;10.67;7.67;;;;;18.63;51.96;101658.81;4997598;28;45435;-66
2022/07/02 04:20:43;;;;;;;;;7.67;7.67;;;;;18.28;51.65;101599.00;4996978;28;46662;-65
2022/07/02 04:23:09;;;;;;;;;5.33;5.33;;;;;18.57;51.37;101637.91;4985143;28;45491;-65
2022/07/02 04:25:34;;;;;;;;;7.33;7.33;;;;;18.60;52.01;101659.13;4975725;28;45506;-65
2022/07/02 04:27:59;;;;;;;;;9.67;7.67;;;;;18.67;51.83;101665.53;4977276;28;45555;-65
2022/07/02 04:30:25;;;;;;;;;5.67;5.67;;;;;18.70;51.14;101673.25;4977304;28;46392;-65
2022/07/02 04:32:50;;;;;;;;;6.00;6.00;;;;;18.62;51.46;101657.09;5008714;28;45220;-64
2022/07/02 04:35:16;;;;;;;;;4.00;4.00;;;;;18.65;51.40;101663.03;4977166;28;45161;-65
2022/07/02 04:37:41;;;;;;;;;12.67;10.00;;;;;18.02;51.46;101561.56;4977356;28;45221;-65
2022/07/02 04:40:07;;;;;;;;;11.00;9.00;;;;;18.62;51.77;101665.16;4976803;28;46341;-64
2022/07/02 04:42:32;;;;;;;;;5.33;3.00;;;;;18.60;51.20;101656.41;4976723;28;45546;-65
2022/07/02 04:44:58;;;;;;;;;6.67;5.00;;;;;18.41;50.98;101625.34;4977241;28;45513;-65
2022/07/02 04:47:23;;;;;;;;;5.67;5.67;;;;;18.53;50.79;101640.97;4977290;28;45588;-65
2022/07/02 04:49:48;;;;;;;;;6.67;5.33;;;;;18.18;50.62;101592.97;4976851;28;45911;-66
2022/07/02 04:52:14;;;;;;;;;9.33;7.00;;;;;18.58;50.62;101651.22;4995537;28;45216;-66
2022/07/02 04:54:40;;;;;;;;;6.33;5.00;;;;;18.27;50.48;101596.47;4996631;28;45449;-65
2022/07/02 04:57:05;;;;;;;;;5.00;4.00;;;;;18.64;50.61;101660.50;4996302;28;45305;-65
2022/07/02 04:59:31;;;;;;;;;6.33;6.33;;;;;18.55;50.27;101660.47;4996351;28;46171;-65
2022/07/02 05:01:56;;;;;;;;;17.33;17.33;;;;;18.47;50.38;101636.28;4996445;28;45339;-65
2022/07/02 05:04:21;;;;;;;;;5.33;5.33;;;;;18.63;50.03;101669.59;4996587;28;45512;-66
2022/07/02 05:06:47;;;;;;;;;4.33;4.33;;;;;18.55;50.14;101654.25;4996806;28;45249;-65
2022/07/02 05:09:12;;;;;;;;;5.33;4.00;;;;;18.46;50.27;101639.16;4994160;28;45701;-65
2022/07/02 05:11:37;;;;;;;;;6.00;4.67;;;;;18.52;49.94;101654.59;4976698;28;45354;-64
2022/07/02 05:14:03;;;;;;;;;5.00;5.00;;;;;18.63;50.76;101666.91;4976786;28;45256;-66
2022/07/02 05:16:28;;;;;;;;;5.00;5.00;;;;;18.49;50.46;101639.63;4977056;28;45264;-64
2022/07/02 05:18:54;;;;;;;;;5.33;5.33;;;;;18.58;50.57;101656.59;4988811;28;45910;-65
2022/07/02 05:21:19;;;;;;;;;6.33;5.33;;;;;18.64;50.40;101665.88;4996382;28;45295;-65
2022/07/02 05:23:44;;;;;;;;;8.00;5.33;;;;;18.03;50.65;101570.50;4996532;28;45436;-65
2022/07/02 05:26:10;;;;;;;;;4.67;4.67;;;;;18.64;50.62;101669.41;4987906;28;45565;-65
2022/07/02 05:28:35;;;;;;;;;6.00;6.00;;;;;18.62;50.66;101665.16;4955899;28;47726;-65
2022/07/02 05:31:01;;;;;;;;;5.33;5.33;;;;;18.68;51.08;101665.34;4957037;28;45266;-66
2022/07/02 05:33:26;;;;;;;;;5.67;5.67;;;;;18.70;50.92;101670.56;4957387;28;45297;-66
2022/07/02 05:35:51;;;;;;;;;3.00;2.67;;;;;18.71;50.84;101673.09;4957315;28;45442;-66
2022/07/02 05:38:17;;;;;;;;;7.33;7.33;;;;;18.74;50.62;101674.59;4958719;28;46443;-66
2022/07/02 05:40:43;;;;;;;;;7.67;6.67;;;;;18.75;50.10;101668.19;4959948;28;45381;-66
2022/07/02 05:43:08;;;;;;;;;8.00;6.67;;;;;18.71;50.41;101659.63;4990623;28;45398;-66
2022/07/02 05:45:33;;;;;;;;;7.33;6.00;;;;;18.80;50.75;101669.31;4999570;28;45613;-65
2022/07/02 05:47:59;;;;;;;;;8.00;8.00;;;;;18.76;49.66;101662.63;4996320;28;45997;-65
2022/07/02 05:50:24;;;;;;;;;7.67;6.00;;;;;18.71;50.10;101645.31;4979491;28;45472;-65
2022/07/02 05:52:49;;;;;;;;;4.00;4.00;;;;;18.94;50.52;101669.63;4995307;28;45685;-65
2022/07/02 05:55:15;;;;;;;;;6.33;5.00;;;;;19.10;49.64;101661.44;4999370;28;45360;-65
2022/07/02 05:57:40;;;;;;;;;7.00;7.00;;;;;19.39;49.42;101669.66;4999119;28;46337;-65
2022/07/02 06:00:08;;;;;;;;;6.00;6.00;;;;;19.21;47.54;101603.56;4984306;28;45570;-64
2022/07/02 06:02:33;;;;;;;;;4.00;3.00;;;;;19.59;47.31;101659.25;4979458;28;45270;-66
2022/07/02 06:04:59;;;;;;;;;7.67;6.00;;;;;19.54;47.73;101623.91;4979333;28;45336;-66
2022/07/02 06:07:39;;;;;;;;;7.00;4.33;;;;;20.03;46.61;101677.47;4977716;28;46377;-65
2022/07/02 06:10:06;;;;;;;;;5.33;5.33;;;;;20.38;45.96;101672.34;4979389;28;45371;-66
2022/07/02 06:12:32;;;;;;;;;6.33;5.33;;;;;20.70;45.00;101669.31;4979255;28;45558;-66
2022/07/02 06:14:58;;;;;;;;;6.00;5.00;;;;;21.01;44.73;101676.34;4979538;28;45303;-66
2022/07/02 06:17:23;;;;;;;;;6.00;5.33;;;;;21.31;43.44;101677.16;4978526;28;45703;-66
2022/07/02 06:19:50;;;;;;;;;7.67;6.00;;;;;21.60;43.45;101681.59;4979032;28;45436;-66
2022/07/02 06:22:16;;;;;;;;;5.00;5.00;;;;;21.78;43.01;101657.59;4979004;28;45387;-66
2022/07/02 06:24:41;;;;;;;;;8.33;5.00;;;;;22.21;42.10;101677.34;4986648;28;45297;-65
2022/07/02 06:27:07;;;;;;;;;6.00;6.00;;;;;22.32;41.94;101640.75;4998783;28;45594;-66
2022/07/02 06:29:32;;;;;;;;;6.00;6.00;;;;;22.80;40.66;101667.88;4996674;28;45462;-66
2022/07/02 06:32:00;;;;;;;;;5.33;4.00;;;;;22.94;40.73;101666.94;4979394;28;45457;-66
2022/07/02 06:34:25;;;;;;;;;6.00;6.00;;;;;23.17;40.06;101663.88;4979467;28;45297;-66
2022/07/02 06:36:50;;;;;;;;;5.00;5.00;;;;;23.34;39.80;101660.56;4981610;28;45603;-65
2022/07/02 06:39:16;;;;;;;;;6.00;4.33;;;;;23.61;39.23;101657.91;4978352;28;45507;-66
2022/07/02 06:44:25;;;;;;;;;3.67;3.67;;;;;23.65;37.42;101630.16;4959507;28;45334;-66
2022/07/02 06:46:51;;;;;;;;;3.33;3.33;;;;;23.35;37.67;101564.56;4959203;28;46427;-66
2022/07/02 06:49:18;;;;;;;;;4.33;4.33;;;;;23.97;37.61;101649.34;4958114;28;45294;-67
2022/07/02 06:51:44;;;;;;;;;5.33;4.67;;;;;24.10;37.38;101670.25;4978388;28;45226;-65
2022/07/02 06:54:09;;;;;;;;;4.67;4.67;;;;;24.19;36.24;101668.97;4984116;28;45554;-67
2022/07/02 06:56:37;;;;;;;;;3.67;3.67;;;;;23.12;36.85;101488.16;4998061;28;46168;-67
2022/07/02 06:59:04;;;;;;;;;3.33;3.33;;;;;24.31;36.50;101664.59;4998659;28;45457;-67
2022/07/02 07:01:30;;;;;;;;;4.00;4.00;;;;;24.47;35.81;101661.44;4998316;28;45522;-66
2022/07/02 07:03:55;;;;;;;;;2.00;2.00;;;;;24.66;35.54;101669.75;4998184;28;45492;-66
2022/07/02 07:06:24;;;;;;;;;4.00;3.00;;;;;24.21;34.91;101574.50;4996504;28;46447;-66
2022/07/02 07:08:53;;;;;;;;;4.67;3.00;;;;;24.91;34.98;101661.69;4997825;28;45351;-65
2022/07/02 07:11:22;;;;;;;;;2.67;2.67;;;;;24.95;34.39;101650.16;4980474;28;45427;-66
2022/07/02 07:13:49;;;;;;;;;1.33;1.33;;;;;25.01;33.85;101634.88;4978600;28;45491;-66
2022/07/02 07:16:15;;;;;;;;;2.00;2.00;;;;;25.16;33.79;101649.84;4976775;28;46503;-68
2022/07/02 07:18:42;;;;;;;;;1.00;1.00;;;;;25.03;32.84;101644.50;4978064;28;45235;-65
2022/07/02 07:21:07;;;;;;;;;2.33;2.33;;;;;25.11;32.84;101646.97;4991315;28;45386;-68
2022/07/02 07:23:33;;;;;;;;;5.00;2.67;;;;;25.23;33.89;101652.56;4975812;28;45420;-68
2022/07/02 07:25:58;;;;;;;;;1.67;1.67;;;;;25.31;33.82;101629.66;4978015;28;45513;-66
2022/07/02 07:28:27;;;;;;;;;3.33;3.33;;;;;25.50;32.63;101639.59;4977937;28;45386;-65
2022/07/02 07:30:53;;;;;;;;;3.00;1.00;;;;;25.51;32.36;101646.69;4978095;28;45280;-66
2022/07/02 07:33:18;;;;;;;;;6.00;5.00;;;;;25.59;32.40;101659.19;4977985;28;45571;-67
2022/07/02 07:35:44;;;;;;;;;1.33;1.00;;;;;25.66;31.58;101639.03;4977306;28;46405;-66
2022/07/02 07:38:10;;;;;;;;;3.00;2.00;;;;;25.71;31.33;101650.13;4977803;28;45175;-65
2022/07/02 07:40:35;;;;;;;;;1.00;1.00;;;;;25.72;31.60;101653.69;4978144;28;45302;-68
2022/07/02 07:43:02;;;;;;;;;1.00;1.00;;;;;25.47;30.87;101597.31;4978572;28;45309;-67
2022/07/02 07:45:27;;;;;;;;;1.00;1.00;;;;;25.82;31.28;101650.44;4977913;28;47483;-69
2022/07/02 07:47:52;;;;;;;;;1.67;1.67;;;;;25.82;30.85;101634.09;4978355;28;45179;-67
2022/07/02 07:50:18;;;;;;;;;3.00;3.00;;;;;26.03;30.61;101650.91;4976571;28;45524;-68
2022/07/02 07:52:43;;;;;;;;;2.67;1.33;;;;;26.12;30.60;101643.25;4977885;28;45386;-69
2022/07/02 07:55:08;;;;;;;;;2.00;2.00;;;;;26.10;30.80;101612.69;4982584;28;46210;-72
2022/07/02 07:57:34;;;;;;;;;1.00;1.00;;;;;26.40;30.30;101622.84;4996807;28;45296;-67
2022/07/02 07:59:59;;;;;;;;;1.00;1.00;;;;;26.62;29.71;101613.97;4983743;28;45352;-66
2022/07/02 08:02:25;;;;;;;;;1.33;1.00;;;;;27.00;29.51;101639.34;4977699;28;45427;-66
2022/07/02 08:04:50;;;;;;;;;2.00;1.00;;;;;27.03;29.04;101617.91;4976146;28;47704;-68
2022/07/02 08:07:15;;;;;;;;;0.00;0.00;;;;;27.18;28.21;101631.94;4980974;28;45363;-68
2022/07/02 08:09:40;;;;;;;;;2.67;1.67;;;;;27.25;28.53;101637.31;4977634;28;45476;-66
2022/07/02 08:12:06;;;;;;;;;1.33;0.00;;;;;27.04;28.01;101591.44;4978135;28;45527;-68
2022/07/02 08:14:31;;;;;;;;;1.00;1.00;;;;;27.25;28.40;101621.75;4985959;28;45550;-66
2022/07/02 08:16:57;;;;;;;;;1.00;1.00;;;;;27.51;29.25;101636.88;4977204;28;45305;-66
2022/07/02 08:19:22;;;;;;;;;1.00;1.00;;;;;27.61;28.16;101598.06;4977210;28;45392;-67
2022/07/02 08:21:48;;;;;;;;;2.00;2.00;;;;;27.99;27.89;101627.69;4977461;28;46255;-67
2022/07/02 08:24:13;;;;;;;;;1.33;1.33;;;;;28.18;27.26;101634.69;4977351;28;46359;-67
2022/07/02 08:26:38;;;;;;;;;1.00;1.00;;;;;28.38;27.76;101626.13;4977485;28;45272;-68
2022/07/02 08:29:04;;;;;;;;;0.67;0.67;;;;;28.48;26.94;101609.94;4977295;28;45449;-66
2022/07/02 08:31:29;;;;;;;;;1.67;1.67;;;;;28.73;26.98;101593.19;4982048;28;45415;-67
2022/07/02 08:33:55;;;;;;;;;1.00;1.00;;;;;28.72;26.41;101539.53;4977113;28;46268;-68
2022/07/02 08:36:20;;;;;;;;;6.33;6.33;;;;;29.63;26.54;101621.69;4976712;28;45483;-69
2022/07/02 08:38:46;;;;;;;;;0.00;0.00;;;;;30.01;25.90;101614.59;4977189;28;45479;-66
2022/07/02 08:41:12;;;;;;;;;0.00;0.00;;;;;30.37;24.67;101625.00;4976021;28;45622;-68
2022/07/02 08:43:40;;;;;;;;;1.00;1.00;;;;;30.59;25.05;101603.03;4976914;28;45787;-67
2022/07/02 08:46:07;;;;;;;;;1.00;1.00;;;;;30.70;24.60;101560.13;4977086;28;45341;-67
2022/07/02 08:48:33;;;;;;;;;1.00;1.00;;;;;31.18;24.55;101598.50;4976718;28;45426;-66
2022/07/02 08:51:00;;;;;;;;;1.67;1.00;;;;;31.70;23.69;101608.03;4977196;28;45566;-67
2022/07/02 08:53:26;;;;;;;;;1.00;1.00;;;;;31.84;23.41;101570.75;4976762;28;46995;-67
2022/07/02 08:55:54;;;;;;;;;1.00;1.00;;;;;32.38;22.71;101611.75;4976684;28;45404;-67
2022/07/02 08:58:19;;;;;;;;;2.00;2.00;;;;;32.66;21.89;101599.50;4976374;28;45352;-67
2022/07/02 09:00:47;;;;;;;;;1.00;0.00;;;;;32.89;22.58;101582.50;4977269;28;45539;-68
2022/07/02 09:03:14;;;;;;;;;0.00;0.00;;;;;33.22;22.00;101591.34;4976874;28;47017;-72
2022/07/02 09:05:40;;;;;;;;;2.33;2.33;;;;;33.50;20.77;101590.00;4976784;28;45267;-67
2022/07/02 09:08:06;;;;;;;;;0.67;0.00;;;;;33.81;20.86;101608.16;4976846;28;45521;-71
2022/07/02 09:10:33;;;;;;;;;0.00;0.00;;;;;33.76;19.72;101535.63;4977145;28;45306;-67
2022/07/02 09:12:59;;;;;;;;;1.00;1.00;;;;;34.38;19.60;101603.34;4977929;28;45530;-67
2022/07/02 09:15:25;;;;;;;;;0.00;0.00;;;;;34.62;19.44;101597.97;4977574;28;45447;-68
2022/07/02 09:17:51;;;;;;;;;0.00;0.00;;;;;34.72;19.09;101581.38;4994509;28;45351;-70
2022/07/02 09:20:16;;;;;;;;;0.33;0.33;;;;;34.83;19.36;101580.16;4979659;28;45269;-68
2022/07/02 09:22:44;;;;;;;;;0.00;0.00;;;;;35.15;18.07;101593.53;4977991;28;48181;-69
2022/07/02 09:25:16;;;;;;;;;0.33;0.33;;;;;35.17;19.07;101516.66;4979334;28;45451;-68
2022/07/02 09:27:43;;;;;;;;;0.00;0.00;;;;;36.01;17.27;101568.94;4979259;28;45481;-68
2022/07/02 09:30:10;;;;;;;;;0.00;0.00;;;;;36.45;17.20;101585.34;5010797;28;45367;-66
2022/07/02 09:32:38;;;;;;;;;0.00;0.00;;;;;36.85;16.66;101578.41;4993952;28;47295;-67
2022/07/02 09:35:04;;;;;;;;;0.00;0.00;;;;;37.23;16.69;101581.94;4977603;28;45792;-68
2022/07/02 09:37:29;;;;;;;;;0.00;0.00;;;;;37.65;16.07;101580.97;5010562;28;45519;-68
2022/07/02 09:40:00;;;;;;;;;0.00;0.00;;;;;38.02;15.58;101584.69;4978986;28;45456;-66
2022/07/02 09:42:31;;;;;;;;;0.33;0.33;;;;;37.73;15.21;101472.03;4978795;28;45943;-68
2022/07/02 09:44:58;;;;;;;;;1.33;0.00;;;;;38.86;15.25;101571.25;4979231;28;45318;-67
2022/07/02 09:47:30;;;;;;;;;0.00;0.00;;;;;39.37;15.62;101581.09;4979564;28;45256;-68
2022/07/02 09:49:55;;;;;;;;;0.00;0.00;;;;;39.58;14.51;101552.75;4979547;28;45584;-67
2022/07/02 09:52:20;;;;;;;;;0.67;0.67;;;;;39.86;14.12;101565.34;4977964;28;47858;-68
2022/07/02 09:54:46;;;;;;;;;1.00;1.00;;;;;39.76;14.00;101565.63;4976608;28;45449;-68
2022/07/02 09:57:12;;;;;;;;;1.00;1.00;;;;;39.45;12.89;101563.66;4978122;28;45349;-68
2022/07/02 09:59:39;;;;;;;;;0.00;0.00;;;;;39.29;13.38;101567.16;4979540;28;45351;-69
2022/07/02 10:02:17;;;;;;;;;2.00;0.33;;;;;39.15;13.88;101575.56;4977366;28;46974;-67
2022/07/02 10:04:44;;;;;;;;;0.67;0.67;;;;;38.88;13.54;101551.47;4979276;28;45444;-66
2022/07/02 10:07:10;;;;;;;;;2.00;1.00;;;;;38.48;14.25;101562.38;4989185;28;45435;-68
2022/07/02 10:09:39;;;;;;;;;0.00;0.00;;;;;37.89;14.56;101569.72;4977732;28;45545;-66
2022/07/02 10:12:06;;;;;;;;;0.00;0.00;;;;;36.92;15.17;101551.13;4977087;28;47580;-67
2022/07/02 10:14:36;;;;;;;;;0.00;0.00;;;;;35.86;16.50;101534.00;4978723;28;45249;-66
2022/07/02 10:17:02;;;;;;;;;1.00;1.00;;;;;35.16;17.19;101556.47;4978764;28;45484;-66
2022/07/02 10:19:28;;;;;;;;;0.00;0.00;;;;;34.37;17.71;101558.34;4976208;28;46584;-69
2022/07/02 10:21:55;;;;;;;;;0.00;0.00;;;;;33.60;18.17;101542.28;4978277;28;46876;-67
2022/07/02 10:24:23;;;;;;;;;1.67;1.00;;;;;32.86;18.43;101516.94;4977814;28;45310;-67
2022/07/02 10:26:49;;;;;;;;;1.00;0.00;;;;;32.07;18.64;101511.72;4978877;28;45432;-66
2022/07/02 10:29:17;;;;;;;;;0.67;0.67;;;;;31.47;19.61;101538.59;4979699;28;45317;-66
2022/07/02 10:31:51;;;;;;;;;0.00;0.00;;;;;30.70;20.63;101538.97;4978549;28;45756;-67
2022/07/02 10:35:08;;;;;;;;;1.00;1.00;;;;;30.25;22.03;101536.53;4977339;28;45640;-67
2022/07/02 10:37:36;;;;;;;;;0.00;0.00;;;;;29.68;22.30;101512.16;4993203;28;45576;-71
2022/07/02 10:40:02;;;;;;;;;0.33;0.33;;;;;29.46;22.60;101524.97;4981499;28;45694;-67
2022/07/02 10:42:59;;;;;;;;;0.67;0.67;;;;;29.20;22.61;101540.13;4989679;28;46776;-67
2022/07/02 10:45:25;;;;;;;;;1.00;1.00;;;;;28.91;24.05;101531.16;4992953;28;45627;-68
2022/07/02 10:48:02;;;;;;;;;1.33;1.33;;;;;28.33;23.91;101491.19;4996750;28;45404;-67
2022/07/02 10:50:39;;;;;;;;;0.67;0.67;;;;;28.46;24.04;101521.00;4993430;28;45459;-67
2022/07/02 10:53:21;;;;;;;;;0.00;0.00;;;;;28.32;24.52;101525.09;4981932;28;45504;-68
2022/07/02 10:55:55;;;;;;;;;0.00;0.00;;;;;28.15;24.31;101523.06;4979338;28;45470;-67
2022/07/02 10:58:24;;;;;;;;;0.00;0.00;;;;;27.95;24.87;101511.72;4985087;28;45538;-67
2022/07/02 11:00:50;;;;;;;;;0.00;0.00;;;;;27.87;25.22;101514.81;4990059;28;45535;-67
2022/07/02 11:03:25;;;;;;;;;2.00;1.00;;;;;27.81;25.25;101524.78;4997924;28;46183;-67
2022/07/02 11:06:03;;;;;;;;;0.00;0.00;;;;;27.57;25.27;101523.94;4979425;28;45510;-68
2022/07/02 11:08:43;;;;;;;;;2.00;1.00;;;;;27.31;25.49;101521.69;4997127;28;45244;-67
2022/07/02 11:11:12;;;;;;;;;1.00;0.00;;;;;27.08;25.51;101525.22;4981530;28;45460;-65
2022/07/02 11:13:47;;;;;;;;;1.00;1.00;;;;;26.80;26.00;101520.34;4977769;28;46391;-67
2022/07/02 11:16:26;;;;;;;;;1.00;1.00;;;;;25.66;26.80;101380.31;4978108;28;45368;-65
2022/07/02 11:18:54;;;;;;;;;1.67;1.67;;;;;25.73;27.28;101400.16;4977006;28;45475;-67
2022/07/02 11:21:22;;;;;;;;;1.00;1.00;;;;;25.95;27.61;101446.81;4989086;28;45671;-68
2022/07/02 11:23:49;;;;;;;;;1.00;1.00;;;;;26.34;27.33;101510.06;4976609;28;45959;-68
2022/07/02 11:26:22;;;;;;;;;0.00;0.00;;;;;26.04;27.44;101466.44;4975933;28;45447;-68
2022/07/02 11:28:48;;;;;;;;;1.33;1.33;;;;;26.13;27.79;101465.06;4976524;28;45545;-68